createdAt,value
2017-11-06T00:00:50.480Z,85
2017-11-06T00:01:52.858Z,85
2017-11-06T00:02:55.224Z,85
2017-11-06T00:03:57.595Z,85
2017-11-06T00:04:59.974Z,85
2017-11-06T00:06:02.345Z,85.1
2017-11-06T00:07:04.723Z,85
2017-11-06T00:08:07.095Z,85.1
2017-11-06T00:09:09.472Z,85
2017-11-06T00:10:11.842Z,85.1
2017-11-06T00:11:14.221Z,85.2
2017-11-06T00:12:16.572Z,85.2
2017-11-06T00:13:18.942Z,85.2
2017-11-06T00:14:21.313Z,85.4
2017-11-06T00:15:23.691Z,85.3
2017-11-06T00:16:26.057Z,85.2
2017-11-06T00:17:28.804Z,85.2
2017-11-06T00:18:31.172Z,85.3
2017-11-06T00:19:33.898Z,85.2
2017-11-06T00:20:36.269Z,85.4
2017-11-06T00:21:39.012Z,85.4
2017-11-06T00:22:41.383Z,85.4
2017-11-06T00:23:43.767Z,85.5
2017-11-06T00:24:46.479Z,85.5
2017-11-06T00:25:48.856Z,85.7
2017-11-06T00:26:51.224Z,85.7
2017-11-06T00:27:53.589Z,85.7
2017-11-06T00:28:55.959Z,85.6
2017-11-06T00:29:58.341Z,85.8
2017-11-06T00:31:00.708Z,85.7
2017-11-06T00:32:03.089Z,85.6
2017-11-06T00:33:05.459Z,85.7
2017-11-06T00:34:07.828Z,85.5
2017-11-06T00:35:10.201Z,85.4
2017-11-06T00:36:12.584Z,85.3
2017-11-06T00:37:14.956Z,85.2
2017-11-06T00:38:17.331Z,84.9
2017-11-06T00:39:19.713Z,84.8
2017-11-06T00:40:22.065Z,85
2017-11-06T00:41:24.438Z,84.9
2017-11-06T00:42:26.804Z,84.7
2017-11-06T00:43:29.170Z,84.7
2017-11-06T00:44:31.547Z,84.8
2017-11-06T00:45:34.271Z,84.6
2017-11-06T00:46:36.643Z,84.7
2017-11-06T00:47:39.020Z,84.5
2017-11-06T00:48:41.396Z,84.6
2017-11-06T00:49:43.751Z,84.7
2017-11-06T00:50:46.121Z,84.5
2017-11-06T00:51:48.494Z,84.5
2017-11-06T00:52:50.867Z,84.7
2017-11-06T00:53:53.238Z,84.8
2017-11-06T00:54:55.604Z,84.8
2017-11-06T00:55:57.972Z,85
2017-11-06T00:57:00.350Z,85
2017-11-06T00:58:02.730Z,85.1
2017-11-06T00:59:05.092Z,85.2
2017-11-06T01:00:07.469Z,85.2
2017-11-06T01:01:09.845Z,85.2
2017-11-06T01:02:12.219Z,85.1
2017-11-06T01:03:14.589Z,85.2
2017-11-06T01:04:16.971Z,85.4
2017-11-06T01:05:19.344Z,85.5
2017-11-06T01:06:21.714Z,85.4
2017-11-06T01:07:24.079Z,85.4
2017-11-06T01:08:26.454Z,85.3
2017-11-06T01:09:28.818Z,85.2
2017-11-06T01:10:31.196Z,85.4
2017-11-06T01:11:33.906Z,85.1
2017-11-06T01:12:36.276Z,85.2
2017-11-06T01:13:38.657Z,85.2
2017-11-06T01:14:41.376Z,85
2017-11-06T01:15:43.753Z,85
2017-11-06T01:16:46.123Z,84.9
2017-11-06T01:17:48.500Z,85
2017-11-06T01:18:50.873Z,85.1
2017-11-06T01:19:53.241Z,85
2017-11-06T01:20:55.601Z,84.9
2017-11-06T01:21:57.965Z,85
2017-11-06T01:23:00.703Z,85
2017-11-06T01:24:03.062Z,84.8
2017-11-06T01:25:05.429Z,84.7
2017-11-06T01:26:07.805Z,84.7
2017-11-06T01:27:10.183Z,85
2017-11-06T01:28:12.564Z,84.9
2017-11-06T01:29:14.942Z,85
2017-11-06T01:30:17.671Z,85.1
2017-11-06T01:31:20.049Z,85.1
2017-11-06T01:32:22.431Z,85.2
2017-11-06T01:33:24.797Z,85.1
2017-11-06T01:34:27.166Z,85
2017-11-06T01:35:29.542Z,84.9
2017-11-06T01:36:31.906Z,84.8
2017-11-06T01:37:34.266Z,84.9
2017-11-06T01:38:36.647Z,84.9
2017-11-06T01:39:39.007Z,85
2017-11-06T01:40:41.386Z,84.9
2017-11-06T01:41:43.757Z,85
2017-11-06T01:42:46.124Z,84.9
2017-11-06T01:43:48.495Z,84.9
2017-11-06T01:44:50.876Z,85
2017-11-06T01:45:53.238Z,85.1
2017-11-06T01:46:55.626Z,85.2
2017-11-06T01:47:57.993Z,85.1
2017-11-06T01:49:00.368Z,84.9
2017-11-06T01:50:02.732Z,85.1
2017-11-06T01:51:05.099Z,85
2017-11-06T01:52:07.473Z,85
2017-11-06T01:53:09.853Z,85.1
2017-11-06T01:54:12.210Z,85.1
2017-11-06T01:55:14.592Z,85
2017-11-06T01:56:16.957Z,85.2
2017-11-06T01:57:19.333Z,85.2
2017-11-06T01:58:21.700Z,85.2
2017-11-06T01:59:24.069Z,85.2
2017-11-06T02:00:26.430Z,85.2
2017-11-06T02:01:28.812Z,85.1
2017-11-06T02:02:31.186Z,85.2
2017-11-06T02:03:33.549Z,85.4
2017-11-06T02:04:35.916Z,85.3
2017-11-06T02:05:38.282Z,85.3
2017-11-06T02:06:40.656Z,85.3
2017-11-06T02:07:43.032Z,85.2
2017-11-06T02:08:45.397Z,85.2
2017-11-06T02:09:47.774Z,85.2
2017-11-06T02:10:50.154Z,85.2
2017-11-06T02:11:52.525Z,85.3
2017-11-06T02:12:54.894Z,85.2
2017-11-06T02:13:57.257Z,85.2
2017-11-06T02:14:59.630Z,85.2
2017-11-06T02:16:02.370Z,85.3
2017-11-06T02:17:04.737Z,85.2
2017-11-06T02:18:07.447Z,85.2
2017-11-06T02:19:09.813Z,85.2
2017-11-06T02:20:12.192Z,85.2
2017-11-06T02:21:14.564Z,85.2
2017-11-06T02:22:16.930Z,85.2
2017-11-06T02:23:19.305Z,85.2
2017-11-06T02:24:21.685Z,85.2
2017-11-06T02:25:24.054Z,85.1
2017-11-06T02:26:26.423Z,85.2
2017-11-06T02:27:28.793Z,85.2
2017-11-06T02:28:31.159Z,85.2
2017-11-06T02:29:33.537Z,85.2
2017-11-06T02:30:35.899Z,85.3
2017-11-06T02:31:38.273Z,85.3
2017-11-06T02:32:40.652Z,85.3
2017-11-06T02:33:43.016Z,85.3
2017-11-06T02:34:45.387Z,85.2
2017-11-06T02:35:47.754Z,85.2
2017-11-06T02:36:50.154Z,85.2
2017-11-06T02:37:52.496Z,85
2017-11-06T02:38:54.869Z,85
2017-11-06T02:39:57.234Z,85
2017-11-06T02:40:59.605Z,84.9
2017-11-06T02:42:02.324Z,84.7
2017-11-06T02:43:04.698Z,84.7
2017-11-06T02:44:07.059Z,84.6
2017-11-06T02:45:09.437Z,84.4
2017-11-06T02:46:11.797Z,84.3
2017-11-06T02:47:14.171Z,84.2
2017-11-06T02:48:16.543Z,84.1
2017-11-06T02:49:18.911Z,84.1
2017-11-06T02:50:21.284Z,84
2017-11-06T02:51:23.659Z,84
2017-11-06T02:52:26.029Z,83.9
2017-11-06T02:53:28.802Z,83.9
2017-11-06T02:54:31.176Z,83.8
2017-11-06T02:55:33.543Z,83.8
2017-11-06T02:56:35.908Z,83.7
2017-11-06T02:57:38.278Z,83.7
2017-11-06T02:58:40.644Z,83.7
2017-11-06T02:59:43.012Z,83.7
2017-11-06T03:00:45.396Z,83.6
2017-11-06T03:01:47.766Z,83.5
2017-11-06T03:02:50.133Z,83.5
2017-11-06T03:03:52.514Z,83.5
2017-11-06T03:04:54.877Z,83.4
2017-11-06T03:05:57.597Z,83.5
2017-11-06T03:06:59.979Z,83.4
2017-11-06T03:08:02.352Z,83.3
2017-11-06T03:09:04.725Z,83.2
2017-11-06T03:10:07.090Z,82.9
2017-11-06T03:11:09.813Z,82.6
2017-11-06T03:12:12.530Z,82.9
2017-11-06T03:13:14.905Z,82.9
2017-11-06T03:14:17.271Z,82.9
2017-11-06T03:15:19.652Z,82.9
2017-11-06T03:16:22.019Z,82.8
2017-11-06T03:17:24.390Z,82.9
2017-11-06T03:18:26.760Z,82.9
2017-11-06T03:19:29.142Z,82.9
2017-11-06T03:20:31.863Z,83.2
2017-11-06T03:21:34.235Z,83.3
2017-11-06T03:22:36.599Z,83.4
2017-11-06T03:23:38.967Z,83.5
2017-11-06T03:24:41.337Z,83.8
2017-11-06T03:25:43.705Z,84
2017-11-06T03:26:46.061Z,84.2
2017-11-06T03:27:48.432Z,84.3
2017-11-06T03:28:50.813Z,84.2
2017-11-06T03:29:53.184Z,84.1
2017-11-06T03:30:55.554Z,84.1
2017-11-06T03:31:57.930Z,84
2017-11-06T03:33:00.303Z,84
2017-11-06T03:34:02.658Z,83.9
2017-11-06T03:35:05.020Z,84
2017-11-06T03:36:07.397Z,83.8
2017-11-06T03:37:09.761Z,84.1
2017-11-06T03:38:12.130Z,84.1
2017-11-06T03:39:14.507Z,84.1
2017-11-06T03:40:16.870Z,84.1
2017-11-06T03:41:19.602Z,83.8
2017-11-06T03:42:21.985Z,83.6
2017-11-06T03:43:24.693Z,83.7
2017-11-06T03:44:27.059Z,83.8
2017-11-06T03:45:29.423Z,83.8
2017-11-06T03:46:31.798Z,83.7
2017-11-06T03:47:34.173Z,83.7
2017-11-06T03:48:36.536Z,83.5
2017-11-06T03:49:38.908Z,83.8
2017-11-06T03:50:41.289Z,83.7
2017-11-06T03:51:43.653Z,83.8
2017-11-06T03:52:46.027Z,83.9
2017-11-06T03:53:48.402Z,84
2017-11-06T03:54:50.767Z,84.1
2017-11-06T03:55:53.138Z,84
2017-11-06T03:56:55.507Z,83.9
2017-11-06T03:57:57.874Z,84
2017-11-06T03:59:00.247Z,84.1
2017-11-06T04:00:02.633Z,85.2
2017-11-06T04:01:05.341Z,85.3
2017-11-06T04:02:07.716Z,85.2
2017-11-06T04:03:10.079Z,85.3
2017-11-06T04:04:12.444Z,85.3
2017-11-06T04:05:14.815Z,85.5
2017-11-06T04:06:17.192Z,85.4
2017-11-06T04:07:19.553Z,85.4
2017-11-06T04:08:21.935Z,85.4
2017-11-06T04:09:24.300Z,85.5
2017-11-06T04:10:26.680Z,85.5
2017-11-06T04:11:29.050Z,85.5
2017-11-06T04:12:31.421Z,84.5
2017-11-06T04:13:33.783Z,84.4
2017-11-06T04:14:36.508Z,84.3
2017-11-06T04:15:38.878Z,84.3
2017-11-06T04:16:41.252Z,84.2
2017-11-06T04:17:43.623Z,84.1
2017-11-06T04:18:45.998Z,84
2017-11-06T04:19:48.362Z,83.8
2017-11-06T04:20:50.736Z,83.7
2017-11-06T04:21:53.098Z,83.6
2017-11-06T04:22:55.469Z,84.5
2017-11-06T04:23:57.838Z,84.7
2017-11-06T04:25:00.213Z,84.6
2017-11-06T04:26:02.577Z,84.7
2017-11-06T04:27:04.950Z,84.9
2017-11-06T04:28:07.314Z,85
2017-11-06T04:29:09.692Z,85.2
2017-11-06T04:30:12.059Z,85.2
2017-11-06T04:31:14.433Z,85.2
2017-11-06T04:32:16.804Z,85.1
2017-11-06T04:33:19.157Z,85
2017-11-06T04:34:21.526Z,84.9
2017-11-06T04:35:23.906Z,84.9
2017-11-06T04:36:26.277Z,85
2017-11-06T04:37:28.651Z,85.1
2017-11-06T04:38:31.010Z,85.2
2017-11-06T04:39:33.379Z,85.2
2017-11-06T04:40:35.758Z,85.2
2017-11-06T04:41:38.123Z,85.2
2017-11-06T04:42:40.483Z,85.2
2017-11-06T04:43:43.207Z,85
2017-11-06T04:44:45.924Z,84.8
2017-11-06T04:45:48.300Z,84.8
2017-11-06T04:46:50.678Z,84.8
2017-11-06T04:47:53.033Z,84.7
2017-11-06T04:48:55.397Z,84.7
2017-11-06T04:49:57.778Z,84.8
2017-11-06T04:51:00.144Z,84.9
2017-11-06T04:52:02.507Z,84.9
2017-11-06T04:53:04.878Z,84.9
2017-11-06T04:54:07.246Z,85.1
2017-11-06T04:55:09.624Z,85.1
2017-11-06T04:56:12.000Z,85.2
2017-11-06T04:57:14.356Z,85.1
2017-11-06T04:58:16.718Z,85.1
2017-11-06T04:59:19.103Z,84.8
2017-11-06T05:00:21.475Z,84.7
2017-11-06T05:01:23.838Z,84.6
2017-11-06T05:02:26.208Z,84.6
2017-11-06T05:03:28.575Z,84.7
2017-11-06T05:04:30.944Z,84.8
2017-11-06T05:05:33.322Z,84.8
2017-11-06T05:06:36.041Z,84.8
2017-11-06T05:07:38.407Z,84.9
2017-11-06T05:08:40.794Z,85.1
2017-11-06T05:09:43.159Z,85.2
2017-11-06T05:10:45.526Z,85.2
2017-11-06T05:11:47.889Z,85.2
2017-11-06T05:12:50.254Z,84.8
2017-11-06T05:13:52.643Z,85
2017-11-06T05:14:55.011Z,85
2017-11-06T05:15:57.722Z,85.2
2017-11-06T05:17:00.085Z,85
2017-11-06T05:18:02.450Z,84.9
2017-11-06T05:19:04.820Z,84.7
2017-11-06T05:20:07.193Z,84.6
2017-11-06T05:21:09.551Z,84.7
2017-11-06T05:22:11.918Z,84.9
2017-11-06T05:23:14.298Z,84.7
2017-11-06T05:24:16.668Z,84.8
2017-11-06T05:25:19.052Z,84.9
2017-11-06T05:26:21.412Z,85
2017-11-06T05:27:24.281Z,85.2
2017-11-06T05:28:26.652Z,85.2
2017-11-06T05:29:29.021Z,85.3
2017-11-06T05:30:31.395Z,85.3
2017-11-06T05:31:33.763Z,85.1
2017-11-06T05:32:36.128Z,85.2
2017-11-06T05:33:38.491Z,85.1
2017-11-06T05:34:41.218Z,85.1
2017-11-06T05:35:43.588Z,85.1
2017-11-06T05:36:45.955Z,85.2
2017-11-06T05:37:48.318Z,85
2017-11-06T05:38:50.690Z,85
2017-11-06T05:39:53.057Z,85.1
2017-11-06T05:40:55.438Z,85.2
2017-11-06T05:41:58.137Z,85
2017-11-06T05:43:00.505Z,85.1
2017-11-06T05:44:02.871Z,85
2017-11-06T05:45:05.598Z,85
2017-11-06T05:46:08.318Z,84.8
2017-11-06T05:47:10.687Z,84.9
2017-11-06T05:48:13.056Z,84.9
2017-11-06T05:49:15.418Z,85
2017-11-06T05:50:17.787Z,85
2017-11-06T05:51:20.149Z,84.9
2017-11-06T05:52:22.878Z,85.1
2017-11-06T05:53:25.253Z,85
2017-11-06T05:54:27.623Z,85.1
2017-11-06T05:55:29.996Z,85.1
2017-11-06T05:56:32.353Z,85.2
2017-11-06T05:57:34.721Z,85.2
2017-11-06T05:58:37.084Z,85.2
2017-11-06T05:59:39.460Z,85.3
2017-11-06T06:00:41.836Z,85.3
2017-11-06T06:01:44.202Z,85.3
2017-11-06T06:02:46.567Z,85.4
2017-11-06T06:03:48.947Z,85.5
2017-11-06T06:04:51.308Z,85.5
2017-11-06T06:05:54.035Z,85.4
2017-11-06T06:06:56.418Z,85.5
2017-11-06T06:07:58.773Z,85.5
2017-11-06T06:09:01.142Z,85.6
2017-11-06T06:10:03.513Z,85.5
2017-11-06T06:11:05.876Z,85.6
2017-11-06T06:12:08.245Z,85.6
2017-11-06T06:13:10.611Z,85.7
2017-11-06T06:14:12.980Z,85.6
2017-11-06T06:15:15.351Z,85.6
2017-11-06T06:16:18.065Z,85.5
2017-11-06T06:17:20.436Z,85.5
2017-11-06T06:18:22.815Z,85.6
2017-11-06T06:19:25.187Z,85.8
2017-11-06T06:20:27.556Z,85.7
2017-11-06T06:21:29.931Z,85.7
2017-11-06T06:22:32.295Z,85.7
2017-11-06T06:23:34.663Z,85.7
2017-11-06T06:24:37.027Z,85.6
2017-11-06T06:25:39.391Z,85.7
2017-11-06T06:26:41.760Z,85.6
2017-11-06T06:27:44.129Z,85.6
2017-11-06T06:28:46.498Z,85.8
2017-11-06T06:29:48.873Z,85.7
2017-11-06T06:30:51.586Z,85.7
2017-11-06T06:31:53.965Z,85.7
2017-11-06T06:32:56.329Z,85.7
2017-11-06T06:33:58.692Z,85.7
2017-11-06T06:35:01.060Z,85.6
2017-11-06T06:36:03.435Z,85.7
2017-11-06T06:37:05.802Z,85.7
2017-11-06T06:38:08.180Z,85.6
2017-11-06T06:39:10.531Z,85.5
2017-11-06T06:40:12.899Z,85.4
2017-11-06T06:41:15.275Z,85.5
2017-11-06T06:42:17.652Z,85.6
2017-11-06T06:43:20.017Z,85.5
2017-11-06T06:44:22.385Z,85.5
2017-11-06T06:45:24.749Z,85.5
2017-11-06T06:46:27.134Z,85.6
2017-11-06T06:47:29.507Z,85.4
2017-11-06T06:48:31.884Z,85.5
2017-11-06T06:49:34.241Z,85.6
2017-11-06T06:50:36.610Z,85.6
2017-11-06T06:51:38.978Z,85.7
2017-11-06T06:52:41.346Z,85.5
2017-11-06T06:53:43.702Z,85.9
2017-11-06T06:54:46.070Z,85.8
2017-11-06T06:55:48.785Z,86
2017-11-06T06:56:51.159Z,86
2017-11-06T06:57:53.882Z,85.9
2017-11-06T06:58:56.254Z,86
2017-11-06T06:59:58.617Z,86.1
2017-11-06T07:01:00.988Z,86.2
2017-11-06T07:02:03.702Z,86.4
2017-11-06T07:03:06.079Z,86.6
2017-11-06T07:04:08.438Z,86.7
2017-11-06T07:05:10.817Z,86.9
2017-11-06T07:06:13.186Z,87
2017-11-06T07:07:15.561Z,87.1
2017-11-06T07:08:17.929Z,87.4
2017-11-06T07:09:20.305Z,87.6
2017-11-06T07:10:22.670Z,87.9
2017-11-06T07:11:25.407Z,88.3
2017-11-06T07:12:27.775Z,88.7
2017-11-06T07:13:30.149Z,89.1
2017-11-06T07:14:32.517Z,88.4
2017-11-06T07:15:35.240Z,88.9
2017-11-06T07:16:37.606Z,89.4
2017-11-06T07:17:40.681Z,89.7
2017-11-06T07:18:43.390Z,90
2017-11-06T07:19:45.777Z,90
2017-11-06T07:20:48.139Z,90.2
2017-11-06T07:21:50.526Z,90.1
2017-11-06T07:22:52.877Z,90.2
2017-11-06T07:23:55.257Z,90.4
2017-11-06T07:24:57.620Z,90.5
2017-11-06T07:25:59.999Z,90.7
2017-11-06T07:27:02.380Z,90.9
2017-11-06T07:28:04.752Z,91
2017-11-06T07:29:07.123Z,91
2017-11-06T07:30:09.484Z,91.2
2017-11-06T07:31:11.859Z,91.2
2017-11-06T07:32:14.235Z,91.3
2017-11-06T07:33:16.603Z,91.4
2017-11-06T07:34:18.974Z,91.4
2017-11-06T07:35:21.346Z,91.4
2017-11-06T07:36:23.737Z,91.6
2017-11-06T07:37:26.114Z,91.6
2017-11-06T07:38:28.477Z,91.7
2017-11-06T07:39:30.877Z,91.8
2017-11-06T07:40:33.249Z,91.8
2017-11-06T07:41:35.632Z,91.9
2017-11-06T07:42:38.013Z,91.9
2017-11-06T07:43:40.380Z,91.8
2017-11-06T07:44:42.748Z,91.6
2017-11-06T07:45:45.128Z,91.6
2017-11-06T07:46:47.495Z,91.8
2017-11-06T07:47:49.870Z,91.9
2017-11-06T07:48:52.238Z,92.1
2017-11-06T07:49:54.614Z,92.1
2017-11-06T07:50:57.349Z,92.3
2017-11-06T07:51:59.727Z,92.2
2017-11-06T07:53:02.091Z,92
2017-11-06T07:54:04.471Z,92
2017-11-06T07:55:06.858Z,92.1
2017-11-06T07:56:09.221Z,92.1
2017-11-06T07:57:11.595Z,92.1
2017-11-06T07:58:13.960Z,92.2
2017-11-06T07:59:16.328Z,92.3
2017-11-06T08:00:18.721Z,92.1
2017-11-06T08:01:21.098Z,91.9
2017-11-06T08:02:23.470Z,91.9
2017-11-06T08:03:25.850Z,91.7
2017-11-06T08:04:28.227Z,91.7
2017-11-06T08:05:30.612Z,91.6
2017-11-06T08:06:32.995Z,91.6
2017-11-06T08:07:35.361Z,91.5
2017-11-06T08:08:37.731Z,91.3
2017-11-06T08:09:40.120Z,91.4
2017-11-06T08:10:42.496Z,91.2
2017-11-06T08:11:44.878Z,91.1
2017-11-06T08:12:47.243Z,90.9
2017-11-06T08:13:49.615Z,90.7
2017-11-06T08:14:51.998Z,90.5
2017-11-06T08:15:54.372Z,90
2017-11-06T08:16:56.739Z,90
2017-11-06T08:17:59.126Z,90
2017-11-06T08:19:01.498Z,89.9
2017-11-06T08:20:03.881Z,90.1
2017-11-06T08:21:06.263Z,90.3
2017-11-06T08:22:08.643Z,90.5
2017-11-06T08:23:11.026Z,90.5
2017-11-06T08:24:13.404Z,90.6
2017-11-06T08:25:15.787Z,90.5
2017-11-06T08:26:18.170Z,90.5
2017-11-06T08:27:20.891Z,90.4
2017-11-06T08:28:23.264Z,90.4
2017-11-06T08:29:25.642Z,90.2
2017-11-06T08:30:28.027Z,90.2
2017-11-06T08:31:30.758Z,90.5
2017-11-06T08:32:33.132Z,90.7
2017-11-06T08:33:35.516Z,90.7
2017-11-06T08:34:37.883Z,90.5
2017-11-06T08:35:40.266Z,90.6
2017-11-06T08:36:42.641Z,90.7
2017-11-06T08:37:45.371Z,90.8
2017-11-06T08:38:47.750Z,90.7
2017-11-06T08:39:50.126Z,90.8
2017-11-06T08:40:52.499Z,90.9
2017-11-06T08:41:54.879Z,91
2017-11-06T08:42:57.256Z,91
2017-11-06T08:43:59.651Z,91
2017-11-06T08:45:02.022Z,90.4
2017-11-06T08:46:04.407Z,90.3
2017-11-06T08:47:06.793Z,90.2
2017-11-06T08:48:09.174Z,90.3
2017-11-06T08:49:11.559Z,90.2
2017-11-06T08:50:14.287Z,90.5
2017-11-06T08:51:17.011Z,90.7
2017-11-06T08:52:19.409Z,90.6
2017-11-06T08:53:21.789Z,90.4
2017-11-06T08:54:24.166Z,90.4
2017-11-06T08:55:26.553Z,90.3
2017-11-06T08:56:28.934Z,90.4
2017-11-06T08:57:31.304Z,90.4
2017-11-06T08:58:33.696Z,90.4
2017-11-06T08:59:36.080Z,90.4
2017-11-06T09:00:38.463Z,90.4
2017-11-06T09:01:40.848Z,90.5
2017-11-06T09:02:43.225Z,90.5
2017-11-06T09:03:45.953Z,90.5
2017-11-06T09:04:48.343Z,90.5
2017-11-06T09:05:50.714Z,90.4
2017-11-06T09:06:53.095Z,90.2
2017-11-06T09:07:55.477Z,90
2017-11-06T09:08:57.856Z,90
2017-11-06T09:10:00.232Z,90
2017-11-06T09:11:02.625Z,89.9
2017-11-06T09:12:05.725Z,90
2017-11-06T09:13:08.114Z,89.7
2017-11-06T09:14:10.852Z,89.7
2017-11-06T09:15:13.597Z,90.1
2017-11-06T09:16:15.976Z,90.2
2017-11-06T09:17:18.363Z,90.1
2017-11-06T09:18:20.734Z,90.2
2017-11-06T09:19:23.118Z,90.2
2017-11-06T09:20:25.496Z,90.1
2017-11-06T09:21:27.881Z,89.8
2017-11-06T09:22:30.259Z,90
2017-11-06T09:23:32.651Z,90
2017-11-06T09:24:35.396Z,89.9
2017-11-06T09:25:38.469Z,90
2017-11-06T09:26:40.859Z,90
2017-11-06T09:27:43.239Z,90
2017-11-06T09:28:45.625Z,89.7
2017-11-06T09:29:48.016Z,89
2017-11-06T09:30:50.404Z,88.9
2017-11-06T09:31:52.775Z,88.9
2017-11-06T09:32:55.173Z,88.6
2017-11-06T09:33:57.553Z,88.7
2017-11-06T09:35:00.291Z,88.8
2017-11-06T09:36:02.682Z,88.8
2017-11-06T09:37:05.062Z,88.7
2017-11-06T09:38:07.451Z,88.8
2017-11-06T09:39:09.841Z,88.7
2017-11-06T09:40:12.215Z,88.5
2017-11-06T09:41:14.606Z,88.5
2017-11-06T09:42:17.003Z,88.5
2017-11-06T09:43:19.395Z,88.6
2017-11-06T09:44:21.776Z,88.3
2017-11-06T09:45:24.163Z,88.2
2017-11-06T09:46:26.550Z,88.2
2017-11-06T09:47:28.946Z,87.7
2017-11-06T09:48:31.325Z,87.6
2017-11-06T09:49:33.701Z,87.6
2017-11-06T09:50:36.098Z,87.6
2017-11-06T09:51:38.486Z,87.9
2017-11-06T09:52:40.871Z,88
2017-11-06T09:53:43.263Z,87.7
2017-11-06T09:54:45.645Z,87.7
2017-11-06T09:55:48.040Z,88
2017-11-06T09:56:50.426Z,87.6
2017-11-06T09:57:52.820Z,87.5
2017-11-06T09:58:55.213Z,87.2
2017-11-06T09:59:57.589Z,87
2017-11-06T10:00:59.977Z,87.1
2017-11-06T10:02:02.372Z,87.1
2017-11-06T10:03:04.755Z,87.6
2017-11-06T10:04:07.144Z,87.7
2017-11-06T10:05:09.876Z,88
2017-11-06T10:06:12.275Z,87.9
2017-11-06T10:07:14.663Z,87.6
2017-11-06T10:08:17.059Z,87.6
2017-11-06T10:09:19.445Z,87.3
2017-11-06T10:10:21.847Z,87.2
2017-11-06T10:11:24.605Z,87.4
2017-11-06T10:12:27.006Z,87.4
2017-11-06T10:13:29.385Z,87.4
2017-11-06T10:14:31.770Z,87.3
2017-11-06T10:15:34.172Z,87.6
2017-11-06T10:16:36.549Z,87.5
2017-11-06T10:17:38.937Z,87
2017-11-06T10:18:41.326Z,86.4
2017-11-06T10:19:43.715Z,86
2017-11-06T10:20:46.112Z,86.3
2017-11-06T10:21:48.504Z,84.8
2017-11-06T10:22:50.888Z,84.4
2017-11-06T10:23:53.284Z,84.7
2017-11-06T10:24:55.679Z,85.1
2017-11-06T10:25:58.064Z,85.4
2017-11-06T10:27:00.440Z,84.9
2017-11-06T10:28:03.185Z,83.8
2017-11-06T10:29:05.585Z,83.1
2017-11-06T10:30:07.949Z,83.6
2017-11-06T10:31:10.354Z,83.8
2017-11-06T10:32:12.736Z,84.1
2017-11-06T10:33:15.132Z,84
2017-11-06T10:34:17.529Z,84.1
2017-11-06T10:35:19.911Z,84.1
2017-11-06T10:36:22.649Z,84.1
2017-11-06T10:37:25.050Z,84.1
2017-11-06T10:38:27.437Z,84.1
2017-11-06T10:39:30.187Z,84.4
2017-11-06T10:40:32.585Z,84.9
2017-11-06T10:41:34.971Z,84.6
2017-11-06T10:42:37.710Z,84
2017-11-06T10:43:40.098Z,83.9
2017-11-06T10:44:42.837Z,84.1
2017-11-06T10:45:45.229Z,84.1
2017-11-06T10:46:47.620Z,84.4
2017-11-06T10:47:50.010Z,83.9
2017-11-06T10:48:52.411Z,83.6
2017-11-06T10:49:54.799Z,83.6
2017-11-06T10:50:57.245Z,83.5
2017-11-06T10:51:59.635Z,83.4
2017-11-06T10:53:02.384Z,83.6
2017-11-06T10:54:04.763Z,83.6
2017-11-06T10:55:07.149Z,83.6
2017-11-06T10:56:09.550Z,83.8
2017-11-06T10:57:11.936Z,84.3
2017-11-06T10:58:14.323Z,84.1
2017-11-06T10:59:17.067Z,83.8
2017-11-06T11:00:19.802Z,83.9
2017-11-06T11:01:22.207Z,83.9
2017-11-06T11:02:24.606Z,82.7
2017-11-06T11:03:27.328Z,82.7
2017-11-06T11:04:29.720Z,82.9
2017-11-06T11:05:32.118Z,83
2017-11-06T11:06:34.506Z,83.4
2017-11-06T11:07:36.892Z,82.9
2017-11-06T11:08:39.282Z,82.6
2017-11-06T11:09:41.674Z,82.5
2017-11-06T11:10:44.070Z,82.1
2017-11-06T11:11:46.813Z,82.1
2017-11-06T11:12:49.191Z,81.6
2017-11-06T11:13:51.937Z,82
2017-11-06T11:14:54.676Z,82.6
2017-11-06T11:15:57.072Z,82.5
2017-11-06T11:16:59.471Z,82
2017-11-06T11:18:01.856Z,81.8
2017-11-06T11:19:04.250Z,81.9
2017-11-06T11:20:06.645Z,81
2017-11-06T11:21:09.026Z,81.2
2017-11-06T11:22:11.424Z,81.6
2017-11-06T11:23:13.813Z,81.1
2017-11-06T11:24:16.205Z,81.2
2017-11-06T11:25:18.593Z,81.1
2017-11-06T11:26:20.986Z,80.7
2017-11-06T11:27:23.379Z,80.6
2017-11-06T11:28:26.134Z,79.6
2017-11-06T11:29:28.515Z,79.8
2017-11-06T11:30:30.911Z,79.4
2017-11-06T11:31:33.309Z,79.6
2017-11-06T11:32:35.704Z,79.9
2017-11-06T11:33:38.433Z,78.4
2017-11-06T11:34:40.825Z,78.7
2017-11-06T11:35:43.212Z,78.3
2017-11-06T11:36:45.618Z,78.4
2017-11-06T11:37:47.994Z,78.8
2017-11-06T11:38:50.401Z,79.2
2017-11-06T11:39:52.792Z,79.6
2017-11-06T11:40:55.175Z,80
2017-11-06T11:41:57.564Z,79.2
2017-11-06T11:42:59.958Z,78.8
2017-11-06T11:44:02.697Z,79.2
2017-11-06T11:45:05.092Z,79.6
2017-11-06T11:46:07.479Z,79.8
2017-11-06T11:47:09.865Z,79.7
2017-11-06T11:48:12.266Z,80
2017-11-06T11:49:14.650Z,80
2017-11-06T11:50:17.039Z,78.8
2017-11-06T11:51:19.442Z,78.7
2017-11-06T11:52:21.829Z,78.6
2017-11-06T11:53:24.214Z,78.4
2017-11-06T11:54:26.610Z,78.4
2017-11-06T11:55:29.015Z,77.7
2017-11-06T11:56:31.409Z,78
2017-11-06T11:57:33.800Z,78.3
2017-11-06T11:58:36.193Z,78.2
2017-11-06T11:59:38.585Z,78.1
2017-11-06T12:00:41.330Z,78.2
2017-11-06T12:01:44.080Z,77.9
2017-11-06T12:02:46.455Z,78
2017-11-06T12:03:48.857Z,77.9
2017-11-06T12:04:51.251Z,77.4
2017-11-06T12:05:53.643Z,75.9
2017-11-06T12:06:56.043Z,76.2
2017-11-06T12:07:58.424Z,75.9
2017-11-06T12:09:00.810Z,75.7
2017-11-06T12:10:03.220Z,75.9
2017-11-06T12:11:05.961Z,76.3
2017-11-06T12:12:08.344Z,76.1
2017-11-06T12:13:10.740Z,75.7
2017-11-06T12:14:13.131Z,75.9
2017-11-06T12:15:15.526Z,74.1
2017-11-06T12:16:17.929Z,73.4
2017-11-06T12:17:20.302Z,73
2017-11-06T12:18:22.695Z,72.7
2017-11-06T12:19:25.447Z,73
2017-11-06T12:20:27.836Z,72.7
2017-11-06T12:21:30.228Z,73.5
2017-11-06T12:22:32.620Z,73.6
2017-11-06T12:23:35.019Z,73.9
2017-11-06T12:24:37.399Z,74.2
2017-11-06T12:25:39.798Z,73.5
2017-11-06T12:26:42.188Z,73
2017-11-06T12:27:44.582Z,72.8
2017-11-06T12:28:46.967Z,71.6
2017-11-06T12:29:49.369Z,72.2
2017-11-06T12:30:51.753Z,72.7
2017-11-06T12:31:54.495Z,73.3
2017-11-06T12:32:56.888Z,73.5
2017-11-06T12:33:59.628Z,73.5
2017-11-06T12:35:02.387Z,73.1
2017-11-06T12:36:05.134Z,73.2
2017-11-06T12:37:07.512Z,73.4
2017-11-06T12:38:09.897Z,73
2017-11-06T12:39:12.287Z,72.9
2017-11-06T12:40:14.684Z,73.1
2017-11-06T12:41:17.124Z,73.1
2017-11-06T12:42:19.476Z,73.4
2017-11-06T12:43:21.853Z,73.3
2017-11-06T12:44:24.251Z,72.8
2017-11-06T12:45:26.644Z,73.3
2017-11-06T12:46:29.032Z,73.1
2017-11-06T12:47:31.424Z,72.4
2017-11-06T12:48:33.814Z,71.6
2017-11-06T12:49:36.197Z,72.2
2017-11-06T12:50:38.601Z,72.7
2017-11-06T12:51:41.366Z,72.4
2017-11-06T12:52:43.758Z,72
2017-11-06T12:53:46.520Z,71
2017-11-06T12:54:48.915Z,71.3
2017-11-06T12:55:51.296Z,71.5
2017-11-06T12:56:54.031Z,70.1
2017-11-06T12:57:56.424Z,70.5
2017-11-06T12:58:58.809Z,70.9
2017-11-06T13:00:01.207Z,71.4
2017-11-06T13:01:03.596Z,72
2017-11-06T13:02:06.352Z,70.3
2017-11-06T13:03:08.736Z,70.1
2017-11-06T13:04:11.131Z,70.7
2017-11-06T13:05:13.523Z,71.1
2017-11-06T13:06:15.919Z,71.7
2017-11-06T13:07:18.299Z,71.4
2017-11-06T13:08:20.696Z,71.5
2017-11-06T13:09:23.445Z,71.7
2017-11-06T13:10:25.833Z,71.9
2017-11-06T13:11:28.224Z,71.6
2017-11-06T13:12:30.645Z,72.1
2017-11-06T13:13:33.027Z,72.2
2017-11-06T13:14:35.625Z,71.1
2017-11-06T13:15:38.012Z,71.1
2017-11-06T13:16:40.408Z,71.6
2017-11-06T13:17:42.789Z,72
2017-11-06T13:18:45.176Z,72.3
2017-11-06T13:19:47.573Z,72.3
2017-11-06T13:20:49.957Z,72.6
2017-11-06T13:21:52.347Z,72.7
2017-11-06T13:22:54.738Z,72.7
2017-11-06T13:23:57.127Z,72.8
2017-11-06T13:24:59.513Z,72.1
2017-11-06T13:26:01.911Z,71.9
2017-11-06T13:27:04.308Z,71.8
2017-11-06T13:28:06.690Z,71
2017-11-06T13:29:09.083Z,70.1
2017-11-06T13:30:11.504Z,70.5
2017-11-06T13:31:13.864Z,70.7
2017-11-06T13:32:16.254Z,71
2017-11-06T13:33:18.634Z,71.3
2017-11-06T13:34:21.026Z,71.6
2017-11-06T13:35:23.428Z,71.7
2017-11-06T13:36:25.815Z,71.7
2017-11-06T13:37:28.200Z,71.6
2017-11-06T13:38:30.580Z,71.7
2017-11-06T13:39:32.967Z,71.4
2017-11-06T13:40:35.363Z,71.4
2017-11-06T13:41:38.093Z,71.7
2017-11-06T13:42:40.467Z,72
2017-11-06T13:43:42.854Z,72.1
2017-11-06T13:44:45.236Z,72.2
2017-11-06T13:45:47.625Z,72.3
2017-11-06T13:46:50.009Z,72.3
2017-11-06T13:47:52.391Z,72.3
2017-11-06T13:48:54.779Z,72.3
2017-11-06T13:49:57.178Z,72.4
2017-11-06T13:50:59.545Z,72.2
2017-11-06T13:52:01.946Z,72.3
2017-11-06T13:53:04.331Z,72.3
2017-11-06T13:54:06.707Z,72.5
2017-11-06T13:55:09.092Z,72.9
2017-11-06T13:56:11.477Z,73.1
2017-11-06T13:57:13.856Z,73.2
2017-11-06T13:58:16.251Z,73.3